Terminal Aerodrome Forecast
Issued by NWS

Home | Current Version | Previous Version | Text Only | Print | Product List | Glossary On
Versions: 1 2 3 4 5 6 7 8 9 10 11 12 13
138
FTUS46 KSEW 132320
TAFPAE
TAF
KPAE 132320Z 1400/1424 33005KT P6SM SCT250
     FM141300 04006KT 1/4SM FG VV001
     FM142100 05003KT P6SM SCT250=

USA.gov is the U.S. government's official web portal to all federal, state and local government web resources and services.